createdAt,value
2018-04-13T00:00:06.790Z,88.00
2018-04-13T00:01:06.773Z,81.60
2018-04-13T00:02:06.735Z,82.40
2018-04-13T00:03:06.739Z,83.90
2018-04-13T00:04:06.698Z,81.20
2018-04-13T00:05:06.685Z,85.20
2018-04-13T00:06:06.671Z,77.80
2018-04-13T00:07:07.647Z,84.50
2018-04-13T00:08:06.622Z,83.40
2018-04-13T00:09:07.587Z,85.00
2018-04-13T00:10:06.560Z,96.50
2018-04-13T00:11:13.440Z,93.40
2018-04-13T00:12:06.491Z,95.30
2018-04-13T00:13:06.483Z,90.00
2018-04-13T00:14:06.461Z,90.00
2018-04-13T00:15:06.449Z,91.10
2018-04-13T00:16:06.398Z,93.00
2018-04-13T00:17:11.929Z,87.50
2018-04-13T00:18:06.359Z,94.40
2018-04-13T00:19:06.343Z,96.60
2018-04-13T00:20:06.299Z,100.40
2018-04-13T00:21:08.286Z,97.10
2018-04-13T00:22:06.252Z,98.00
2018-04-13T00:23:07.237Z,93.50
2018-04-13T00:24:06.221Z,94.80
2018-04-13T00:25:08.210Z,96.50
2018-04-13T00:26:06.162Z,90.20
2018-04-13T00:27:08.139Z,96.60
2018-04-13T00:28:06.102Z,93.20
2018-04-13T00:29:07.128Z,92.70
2018-04-13T00:30:06.065Z,91.50
2018-04-13T00:31:07.062Z,86.70
2018-04-13T00:32:06.013Z,97.70
2018-04-13T00:33:05.999Z,88.30
2018-04-13T00:34:05.954Z,94.60
2018-04-13T00:35:11.944Z,94.90
2018-04-13T00:36:05.925Z,94.50
2018-04-13T00:37:06.942Z,95.90
2018-04-13T00:38:05.854Z,99.30
2018-04-13T00:39:05.839Z,105.10
2018-04-13T00:40:05.808Z,100.20
2018-04-13T00:41:10.432Z,101.20
2018-04-13T00:42:05.763Z,113.60
2018-04-13T00:43:06.743Z,105.60
2018-04-13T00:44:05.729Z,105.00
2018-04-13T00:45:05.748Z,109.30
2018-04-13T00:46:05.661Z,107.90
2018-04-13T00:47:05.647Z,108.10
2018-04-13T00:48:05.616Z,106.80
2018-04-13T00:49:05.602Z,98.80
2018-04-13T00:50:05.599Z,102.80
2018-04-13T00:51:11.443Z,97.00
2018-04-13T00:52:05.540Z,96.80
2018-04-13T00:53:05.536Z,93.10
2018-04-13T00:54:05.482Z,88.20
2018-04-13T00:55:05.464Z,90.60
2018-04-13T00:56:05.449Z,92.50
2018-04-13T00:57:05.403Z,93.10
2018-04-13T00:58:05.380Z,94.20
2018-04-13T00:59:05.355Z,92.60
2018-04-13T01:00:05.336Z,85.90
2018-04-13T01:01:06.307Z,92.20
2018-04-13T01:02:05.284Z,87.20
2018-04-13T01:03:07.317Z,87.50
2018-04-13T01:04:05.234Z,89.40
2018-04-13T01:05:05.203Z,86.20
2018-04-13T01:06:05.190Z,87.80
2018-04-13T01:07:05.173Z,91.20
2018-04-13T01:08:05.134Z,92.00
2018-04-13T01:09:05.100Z,88.90
2018-04-13T01:10:05.079Z,97.60
2018-04-13T01:11:05.071Z,96.60
2018-04-13T01:12:05.036Z,103.30
2018-04-13T01:13:05.018Z,97.60
2018-04-13T01:14:04.971Z,100.30
2018-04-13T01:15:04.958Z,104.90
2018-04-13T01:16:04.930Z,119.20
2018-04-13T01:17:04.907Z,104.40
2018-04-13T01:18:04.898Z,96.90
2018-04-13T01:19:04.860Z,106.90
2018-04-13T01:20:04.823Z,106.50
2018-04-13T01:21:04.811Z,115.60
2018-04-13T01:22:04.782Z,109.80
2018-04-13T01:23:10.458Z,118.50
2018-04-13T01:24:04.730Z,109.10
2018-04-13T01:25:05.712Z,115.40
2018-04-13T01:26:04.729Z,114.60
2018-04-13T01:27:05.689Z,115.90
2018-04-13T01:28:04.633Z,110.50
2018-04-13T01:29:05.603Z,115.20
2018-04-13T01:30:04.583Z,117.00
2018-04-13T01:31:10.462Z,116.30
2018-04-13T01:32:04.540Z,114.10
2018-04-13T01:33:06.530Z,116.60
2018-04-13T01:34:04.473Z,110.80
2018-04-13T01:35:05.500Z,110.10
2018-04-13T01:36:04.435Z,110.70
2018-04-13T01:37:05.413Z,110.50
2018-04-13T01:38:04.388Z,107.50
2018-04-13T01:39:04.354Z,103.00
2018-04-13T01:40:04.331Z,113.80
2018-04-13T01:41:04.319Z,102.70
2018-04-13T01:42:04.289Z,99.70
2018-04-13T01:43:04.263Z,108.40
2018-04-13T01:44:04.226Z,93.90
2018-04-13T01:45:05.941Z,92.20
2018-04-13T01:46:04.196Z,92.10
2018-04-13T01:47:04.188Z,91.60
2018-04-13T01:48:04.138Z,94.60
2018-04-13T01:49:04.114Z,89.60
2018-04-13T01:50:06.099Z,86.30
2018-04-13T01:51:04.077Z,85.30
2018-04-13T01:52:04.045Z,89.20
2018-04-13T01:53:04.019Z,87.40
2018-04-13T01:54:03.995Z,93.80
2018-04-13T01:55:03.948Z,94.20
2018-04-13T01:56:05.435Z,93.40
2018-04-13T01:57:03.910Z,93.90
2018-04-13T01:58:03.880Z,99.30
2018-04-13T01:59:05.864Z,100.30
2018-04-13T02:00:06.484Z,90.10
2018-04-13T02:01:03.809Z,91.00
2018-04-13T02:02:03.788Z,91.60
2018-04-13T02:03:05.443Z,93.00
2018-04-13T02:04:03.737Z,98.00
2018-04-13T02:05:05.239Z,91.50
2018-04-13T02:06:03.697Z,90.90
2018-04-13T02:07:05.436Z,91.10
2018-04-13T02:08:05.462Z,97.90
2018-04-13T02:09:03.615Z,96.70
2018-04-13T02:10:05.450Z,89.90
2018-04-13T02:11:05.445Z,92.80
2018-04-13T02:12:05.555Z,95.20
2018-04-13T02:13:03.523Z,95.30
2018-04-13T02:14:06.459Z,87.10
2018-04-13T02:15:05.439Z,95.40
2018-04-13T02:16:04.985Z,86.40
2018-04-13T02:17:04.997Z,82.20
2018-04-13T02:18:03.392Z,86.90
2018-04-13T02:19:04.385Z,79.50
2018-04-13T02:20:03.341Z,84.70
2018-04-13T02:21:03.327Z,89.20
2018-04-13T02:22:03.299Z,84.30
2018-04-13T02:23:03.269Z,100.30
2018-04-13T02:24:03.254Z,88.70
2018-04-13T02:25:05.254Z,89.50
2018-04-13T02:26:03.195Z,85.00
2018-04-13T02:27:05.216Z,84.20
2018-04-13T02:28:03.138Z,83.30
2018-04-13T02:29:05.153Z,87.40
2018-04-13T02:30:03.127Z,87.70
2018-04-13T02:31:04.097Z,86.40
2018-04-13T02:32:03.038Z,88.80
2018-04-13T02:33:03.014Z,89.60
2018-04-13T02:34:02.989Z,89.60
2018-04-13T02:35:03.984Z,87.10
2018-04-13T02:36:02.939Z,91.60
2018-04-13T02:37:03.945Z,89.40
2018-04-13T02:38:02.912Z,89.70
2018-04-13T02:39:02.868Z,89.50
2018-04-13T02:40:02.834Z,100.10
2018-04-13T02:41:04.889Z,93.30
2018-04-13T02:42:02.800Z,90.70
2018-04-13T02:43:03.778Z,91.00
2018-04-13T02:44:02.741Z,94.40
2018-04-13T02:45:03.736Z,89.40
2018-04-13T02:46:02.695Z,94.60
2018-04-13T02:47:03.707Z,90.30
2018-04-13T02:48:02.633Z,92.80
2018-04-13T02:49:02.643Z,89.20
2018-04-13T02:50:02.586Z,89.00
2018-04-13T02:51:02.603Z,90.10
2018-04-13T02:52:02.527Z,91.50
2018-04-13T02:53:04.528Z,94.10
2018-04-13T02:54:02.485Z,92.20
2018-04-13T02:55:04.474Z,94.20
2018-04-13T02:56:02.440Z,94.30
2018-04-13T02:57:02.417Z,93.40
2018-04-13T02:58:02.390Z,88.10
2018-04-13T02:59:02.367Z,97.90
2018-04-13T03:00:02.328Z,94.80
2018-04-13T03:01:02.309Z,105.00
2018-04-13T03:02:02.301Z,90.30
2018-04-13T03:03:02.275Z,91.10
2018-04-13T03:04:02.260Z,101.20
2018-04-13T03:05:03.630Z,87.40
2018-04-13T03:06:02.186Z,86.60
2018-04-13T03:07:02.176Z,87.10
2018-04-13T03:08:02.135Z,89.90
2018-04-13T03:09:02.118Z,93.20
2018-04-13T03:10:02.097Z,91.20
2018-04-13T03:11:02.082Z,87.80
2018-04-13T03:12:02.039Z,89.00
2018-04-13T03:13:13.980Z,90.00
2018-04-13T03:14:02.007Z,83.10
2018-04-13T03:15:02.964Z,83.50
2018-04-13T03:16:01.960Z,85.70
2018-04-13T03:17:03.982Z,83.70
2018-04-13T03:18:01.891Z,86.30
2018-04-13T03:19:01.890Z,80.90
2018-04-13T03:20:01.844Z,88.10
2018-04-13T03:21:01.836Z,85.50
2018-04-13T03:22:01.795Z,80.30
2018-04-13T03:23:02.793Z,82.60
2018-04-13T03:24:01.760Z,83.80
2018-04-13T03:25:01.740Z,77.90
2018-04-13T03:26:01.706Z,81.50
2018-04-13T03:27:01.685Z,75.90
2018-04-13T03:28:01.641Z,81.20
2018-04-13T03:29:01.622Z,83.60
2018-04-13T03:30:01.613Z,72.70
2018-04-13T03:31:01.599Z,77.60
2018-04-13T03:32:01.524Z,80.20
2018-04-13T03:33:01.512Z,80.90
2018-04-13T03:34:01.484Z,79.00
2018-04-13T03:35:02.471Z,80.00
2018-04-13T03:36:01.438Z,83.40
2018-04-13T03:37:07.005Z,80.80
2018-04-13T03:38:01.380Z,87.30
2018-04-13T03:39:01.366Z,86.50
2018-04-13T03:40:01.361Z,83.70
2018-04-13T03:41:02.302Z,82.50
2018-04-13T03:42:01.285Z,82.60
2018-04-13T03:43:01.326Z,95.40
2018-04-13T03:44:01.239Z,90.20
2018-04-13T03:45:02.229Z,93.40
2018-04-13T03:46:01.233Z,94.00
2018-04-13T03:47:01.164Z,90.50
2018-04-13T03:48:01.145Z,89.80
2018-04-13T03:49:01.141Z,95.50
2018-04-13T03:50:01.068Z,91.60
2018-04-13T03:51:01.069Z,82.30
2018-04-13T03:52:01.048Z,82.40
2018-04-13T03:53:01.020Z,81.60
2018-04-13T03:54:00.990Z,78.40
2018-04-13T03:55:00.961Z,89.30
2018-04-13T03:56:00.942Z,82.90
2018-04-13T03:57:01.941Z,84.10
2018-04-13T03:58:00.904Z,90.20
2018-04-13T03:59:00.885Z,91.20
2018-04-13T04:00:00.836Z,81.40
2018-04-13T04:01:00.796Z,88.90
2018-04-13T04:02:00.779Z,84.60
2018-04-13T04:03:00.753Z,83.90
2018-04-13T04:04:00.723Z,88.60
2018-04-13T04:05:00.702Z,80.70
2018-04-13T04:06:00.676Z,77.40
2018-04-13T04:07:00.643Z,83.60
2018-04-13T04:08:00.619Z,84.60
2018-04-13T04:09:00.621Z,75.40
2018-04-13T04:10:00.584Z,72.80
2018-04-13T04:11:00.568Z,82.60
2018-04-13T04:12:00.539Z,78.20
2018-04-13T04:13:00.544Z,76.70
2018-04-13T04:14:00.472Z,73.40
2018-04-13T04:15:00.487Z,93.70
2018-04-13T04:16:00.425Z,105.60
2018-04-13T04:17:00.402Z,92.50
2018-04-13T04:18:00.373Z,84.00
2018-04-13T04:19:00.362Z,86.00
2018-04-13T04:20:00.325Z,90.10
2018-04-13T04:21:00.322Z,94.20
2018-04-13T04:22:00.260Z,88.90
2018-04-13T04:23:00.297Z,79.70
2018-04-13T04:24:00.231Z,85.80
2018-04-13T04:25:00.212Z,83.70
2018-04-13T04:26:00.179Z,89.60
2018-04-13T04:27:00.151Z,84.30
2018-04-13T04:28:00.133Z,89.30
2018-04-13T04:29:01.111Z,79.80
2018-04-13T04:30:00.095Z,86.50
2018-04-13T04:31:01.056Z,83.40
2018-04-13T04:32:00.019Z,81.00
2018-04-13T04:32:59.998Z,86.90
2018-04-13T04:33:59.969Z,90.50
2018-04-13T04:34:59.938Z,104.70
2018-04-13T04:35:59.920Z,108.50
2018-04-13T04:37:00.902Z,101.60
2018-04-13T04:37:59.894Z,106.20
2018-04-13T04:38:59.875Z,104.10
2018-04-13T04:39:59.828Z,100.40
2018-04-13T04:40:59.807Z,100.20
2018-04-13T04:41:59.769Z,96.80
2018-04-13T04:42:59.741Z,95.90
2018-04-13T04:43:59.722Z,91.80
2018-04-13T04:44:59.724Z,88.30
2018-04-13T04:45:59.657Z,96.30
2018-04-13T04:47:00.643Z,87.40
2018-04-13T04:47:59.609Z,93.80
2018-04-13T04:48:59.588Z,94.90
2018-04-13T04:49:59.558Z,97.70
2018-04-13T04:51:00.542Z,90.50
2018-04-13T04:51:59.509Z,89.70
2018-04-13T04:52:59.480Z,91.80
2018-04-13T04:53:59.454Z,98.00
2018-04-13T04:55:00.428Z,95.60
2018-04-13T04:55:59.408Z,102.10
2018-04-13T04:56:59.390Z,101.70
2018-04-13T04:57:59.367Z,98.10
2018-04-13T04:58:59.333Z,99.00
2018-04-13T04:59:59.321Z,89.70
2018-04-13T05:01:00.296Z,92.90
2018-04-13T05:01:59.318Z,99.90
2018-04-13T05:02:59.232Z,103.80
2018-04-13T05:03:59.204Z,97.60
2018-04-13T05:04:59.186Z,101.50
2018-04-13T05:05:59.160Z,100.80
2018-04-13T05:06:59.129Z,108.00
2018-04-13T05:07:59.101Z,102.10
2018-04-13T05:08:59.080Z,102.10
2018-04-13T05:09:59.045Z,110.80
2018-04-13T05:10:59.029Z,100.90
2018-04-13T05:11:58.998Z,99.40
2018-04-13T05:12:58.984Z,103.70
2018-04-13T05:13:58.959Z,99.50
2018-04-13T05:14:58.931Z,102.60
2018-04-13T05:15:58.920Z,100.10
2018-04-13T05:16:59.898Z,107.60
2018-04-13T05:17:58.851Z,109.90
2018-04-13T05:18:58.854Z,104.10
2018-04-13T05:19:58.817Z,110.70
2018-04-13T05:20:58.776Z,113.80
2018-04-13T05:21:58.752Z,106.70
2018-04-13T05:22:58.723Z,106.60
2018-04-13T05:23:58.719Z,110.80
2018-04-13T05:24:58.673Z,102.20
2018-04-13T05:25:58.640Z,105.10
2018-04-13T05:26:59.622Z,108.20
2018-04-13T05:27:58.601Z,104.80
2018-04-13T05:28:58.574Z,102.00
2018-04-13T05:29:58.553Z,97.30
2018-04-13T05:30:58.608Z,96.70
2018-04-13T05:31:58.492Z,103.10
2018-04-13T05:32:58.476Z,98.50
2018-04-13T05:33:58.461Z,102.10
2018-04-13T05:34:58.432Z,103.00
2018-04-13T05:35:58.407Z,97.60
2018-04-13T05:36:58.457Z,97.70
2018-04-13T05:37:58.342Z,96.20
2018-04-13T05:38:58.411Z,99.50
2018-04-13T05:39:58.334Z,98.30
2018-04-13T05:40:58.377Z,93.30
2018-04-13T05:41:58.262Z,93.90
2018-04-13T05:42:59.344Z,98.70
2018-04-13T05:43:58.204Z,104.00
2018-04-13T05:44:58.172Z,123.90
2018-04-13T05:45:58.146Z,123.70
2018-04-13T05:46:58.222Z,125.60
2018-04-13T05:47:58.106Z,123.80
2018-04-13T05:48:58.113Z,120.80
2018-04-13T05:49:58.046Z,128.90
2018-04-13T05:50:58.029Z,129.50
2018-04-13T05:51:58.029Z,133.20
2018-04-13T05:52:58.065Z,133.50
2018-04-13T05:53:57.942Z,135.70
2018-04-13T05:54:57.958Z,135.00
2018-04-13T05:55:57.888Z,140.00
2018-04-13T05:56:58.003Z,149.00
2018-04-13T05:57:57.835Z,158.40
2018-04-13T05:58:57.894Z,153.40
2018-04-13T05:59:57.868Z,153.80
2018-04-13T06:00:57.753Z,149.60
2018-04-13T06:01:57.801Z,152.50
2018-04-13T06:02:57.711Z,150.90
2018-04-13T06:03:57.710Z,149.40
2018-04-13T06:04:57.658Z,143.00
2018-04-13T06:05:58.644Z,132.60
2018-04-13T06:06:57.620Z,137.40
2018-04-13T06:07:57.660Z,132.00
2018-04-13T06:08:57.559Z,128.80
2018-04-13T06:09:57.552Z,126.30
2018-04-13T06:10:57.516Z,124.50
2018-04-13T06:11:57.577Z,122.10
2018-04-13T06:12:57.463Z,129.70
2018-04-13T06:13:58.504Z,124.00
2018-04-13T06:14:57.393Z,126.00
2018-04-13T06:15:57.485Z,125.00
2018-04-13T06:16:57.386Z,130.40
2018-04-13T06:17:57.400Z,133.00
2018-04-13T06:18:57.308Z,136.20
2018-04-13T06:19:57.315Z,139.50
2018-04-13T06:20:57.290Z,142.80
2018-04-13T06:21:57.328Z,141.10
2018-04-13T06:22:57.237Z,141.10
2018-04-13T06:23:57.233Z,133.50
2018-04-13T06:24:57.152Z,136.80
2018-04-13T06:25:57.154Z,135.00
2018-04-13T06:26:57.111Z,126.80
2018-04-13T06:27:57.075Z,134.80
2018-04-13T06:28:57.094Z,131.00
2018-04-13T06:29:57.036Z,130.70
2018-04-13T06:30:57.025Z,132.20
2018-04-13T06:31:56.986Z,128.70
2018-04-13T06:32:56.986Z,128.40
2018-04-13T06:33:56.951Z,140.90
2018-04-13T06:34:57.006Z,127.90
2018-04-13T06:35:56.884Z,132.30
2018-04-13T06:36:57.944Z,129.00
2018-04-13T06:37:56.863Z,130.10
2018-04-13T06:38:56.847Z,129.30
2018-04-13T06:39:56.760Z,129.40
2018-04-13T06:40:56.739Z,133.50
2018-04-13T06:41:56.717Z,131.40
2018-04-13T06:42:56.686Z,130.00
2018-04-13T06:43:56.755Z,125.60
2018-04-13T06:44:56.634Z,124.30
2018-04-13T06:45:56.606Z,125.30
2018-04-13T06:46:56.584Z,131.30
2018-04-13T06:47:56.580Z,127.90
2018-04-13T06:48:56.558Z,141.30
2018-04-13T06:49:56.597Z,130.60
2018-04-13T06:50:56.501Z,127.90
2018-04-13T06:51:56.476Z,129.80
2018-04-13T06:52:56.442Z,126.50
2018-04-13T06:53:56.420Z,129.20
2018-04-13T06:54:56.412Z,120.70
2018-04-13T06:55:56.371Z,123.80
2018-04-13T06:56:56.332Z,128.20
2018-04-13T06:57:56.346Z,121.90
2018-04-13T06:58:56.283Z,113.10
2018-04-13T06:59:56.252Z,111.10
2018-04-13T07:00:56.370Z,111.70
2018-04-13T07:01:56.214Z,116.20
2018-04-13T07:02:56.176Z,120.30
2018-04-13T07:03:56.215Z,115.60
2018-04-13T07:04:56.146Z,118.80
2018-04-13T07:05:56.124Z,120.00
2018-04-13T07:06:56.107Z,121.00
2018-04-13T07:07:56.074Z,126.10
2018-04-13T07:08:56.043Z,124.10
2018-04-13T07:09:56.010Z,117.90
2018-04-13T07:10:55.988Z,127.10
2018-04-13T07:11:56.029Z,123.30
2018-04-13T07:12:56.002Z,122.70
2018-04-13T07:13:55.943Z,118.70
2018-04-13T07:14:55.893Z,119.30
2018-04-13T07:15:55.846Z,119.30
2018-04-13T07:16:56.898Z,114.90
2018-04-13T07:17:55.829Z,111.90
2018-04-13T07:18:56.818Z,114.30
2018-04-13T07:19:55.789Z,106.40
2018-04-13T07:20:55.733Z,109.50
2018-04-13T07:21:55.724Z,111.60
2018-04-13T07:22:55.702Z,101.60
2018-04-13T07:23:55.659Z,109.40
2018-04-13T07:24:55.715Z,106.40
2018-04-13T07:25:55.598Z,106.60
2018-04-13T07:26:55.565Z,104.90
2018-04-13T07:27:55.540Z,110.50
2018-04-13T07:28:55.527Z,103.90
2018-04-13T07:29:55.514Z,97.20
2018-04-13T07:30:55.482Z,104.20
2018-04-13T07:31:55.868Z,108.90
2018-04-13T07:32:55.415Z,106.40
2018-04-13T07:33:55.571Z,100.40
2018-04-13T07:34:55.348Z,100.10
2018-04-13T07:35:55.338Z,101.00
2018-04-13T07:36:55.313Z,101.60
2018-04-13T07:37:55.304Z,97.70
2018-04-13T07:38:55.496Z,101.80
2018-04-13T07:39:55.298Z,99.70
2018-04-13T07:40:55.220Z,97.60
2018-04-13T07:41:55.187Z,90.00
2018-04-13T07:43:08.162Z,97.60
2018-04-13T07:44:07.046Z,77.20
2018-04-13T07:45:08.029Z,55.70
2018-04-13T07:46:06.978Z,56.00
2018-04-13T07:47:07.071Z,55.60
2018-04-13T07:48:06.943Z,60.80
2018-04-13T07:49:06.896Z,55.20
2018-04-13T07:50:07.314Z,52.40
2018-04-13T07:51:06.872Z,50.20
2018-04-13T07:52:06.979Z,52.90
2018-04-13T07:53:06.798Z,56.20
2018-04-13T07:54:06.855Z,51.70
2018-04-13T07:55:06.751Z,49.00
2018-04-13T07:56:06.730Z,48.50
2018-04-13T07:57:06.690Z,58.30
2018-04-13T07:58:06.813Z,52.50
2018-04-13T07:59:06.643Z,51.80
2018-04-13T08:00:06.696Z,46.70
2018-04-13T08:01:06.593Z,46.00
2018-04-13T08:02:06.615Z,50.40
2018-04-13T08:03:06.569Z,47.10
2018-04-13T08:04:06.527Z,50.50
2018-04-13T08:05:06.511Z,46.30
2018-04-13T08:06:06.468Z,58.40
2018-04-13T08:07:07.459Z,59.20
2018-04-13T08:08:06.411Z,51.60
2018-04-13T08:09:06.397Z,50.10
2018-04-13T08:10:07.390Z,44.10
2018-04-13T08:11:06.409Z,46.10
2018-04-13T08:12:06.379Z,44.00
2018-04-13T08:13:06.293Z,50.40
2018-04-13T08:14:07.328Z,41.30
2018-04-13T08:15:06.342Z,50.60
2018-04-13T08:16:06.210Z,42.40
2018-04-13T08:17:06.221Z,37.40
2018-04-13T08:18:06.169Z,43.50
2018-04-13T08:19:06.227Z,43.40
2018-04-13T08:20:06.101Z,42.20
2018-04-13T08:21:06.157Z,42.70
2018-04-13T08:22:06.096Z,42.00
2018-04-13T08:23:06.056Z,41.60
2018-04-13T08:24:06.047Z,40.30
2018-04-13T08:25:05.998Z,37.70
2018-04-13T08:26:05.961Z,42.80
2018-04-13T08:27:05.990Z,44.30
2018-04-13T08:28:05.919Z,38.70
2018-04-13T08:29:05.889Z,34.90
2018-04-13T08:30:05.963Z,42.20
2018-04-13T08:31:05.830Z,41.10
2018-04-13T08:32:06.947Z,43.90
2018-04-13T08:33:05.777Z,41.70
2018-04-13T08:34:05.763Z,40.40
2018-04-13T08:35:05.857Z,40.10
2018-04-13T08:36:05.708Z,40.30
2018-04-13T08:37:05.742Z,40.00
2018-04-13T08:38:05.661Z,39.30
2018-04-13T08:39:06.684Z,46.50
2018-04-13T08:40:05.600Z,42.30
2018-04-13T08:41:05.675Z,43.20
2018-04-13T08:42:05.568Z,42.50
2018-04-13T08:43:06.609Z,36.70
2018-04-13T08:44:05.499Z,37.30
2018-04-13T08:45:07.540Z,33.80
2018-04-13T08:46:05.495Z,36.00
2018-04-13T08:47:05.507Z,38.30
2018-04-13T08:48:05.396Z,40.10
2018-04-13T08:49:05.544Z,35.60
2018-04-13T08:50:05.356Z,35.20
2018-04-13T08:51:05.445Z,36.60
2018-04-13T08:52:05.328Z,35.50
2018-04-13T08:53:05.398Z,39.80
2018-04-13T08:54:05.309Z,35.30
2018-04-13T08:55:05.256Z,33.10
2018-04-13T08:56:05.206Z,34.80
2018-04-13T08:57:09.786Z,31.30
2018-04-13T08:58:05.183Z,35.10
2018-04-13T08:59:05.139Z,31.40
2018-04-13T09:00:05.212Z,31.90
2018-04-13T09:01:05.085Z,33.70
2018-04-13T09:02:05.098Z,32.30
2018-04-13T09:03:05.032Z,37.20
2018-04-13T09:04:05.065Z,37.40
2018-04-13T09:05:04.983Z,36.70
2018-04-13T09:06:04.984Z,36.90
2018-04-13T09:07:04.953Z,33.80
2018-04-13T09:08:04.985Z,35.80
2018-04-13T09:09:04.870Z,36.10
2018-04-13T09:10:04.925Z,36.00
2018-04-13T09:11:04.837Z,34.90
2018-04-13T09:12:04.809Z,34.70
2018-04-13T09:13:04.865Z,26.80
2018-04-13T09:14:04.835Z,28.30
2018-04-13T09:15:04.719Z,33.30
2018-04-13T09:16:05.773Z,31.10
2018-04-13T09:17:04.671Z,35.40
2018-04-13T09:18:05.684Z,39.90
2018-04-13T09:19:04.643Z,28.00
2018-04-13T09:20:05.697Z,22.10
2018-04-13T09:21:04.603Z,24.10
2018-04-13T09:22:05.595Z,27.10
2018-04-13T09:23:04.538Z,28.50
2018-04-13T09:24:04.607Z,23.50
2018-04-13T09:25:04.574Z,22.00
2018-04-13T09:26:04.500Z,22.60
2018-04-13T09:27:04.418Z,21.90
2018-04-13T09:28:04.409Z,23.20
2018-04-13T09:29:04.376Z,27.70
2018-04-13T09:30:09.901Z,25.40
2018-04-13T09:31:04.331Z,24.60
2018-04-13T09:32:04.383Z,25.90
2018-04-13T09:33:04.261Z,25.20
2018-04-13T09:34:04.352Z,26.60
2018-04-13T09:35:04.214Z,24.10
2018-04-13T09:36:04.265Z,25.50
2018-04-13T09:37:04.155Z,23.40
2018-04-13T09:38:04.191Z,23.10
2018-04-13T09:39:04.121Z,25.20
2018-04-13T09:40:06.129Z,25.90
2018-04-13T09:41:04.103Z,22.40
2018-04-13T09:42:04.100Z,23.80
2018-04-13T09:43:04.015Z,22.90
2018-04-13T09:44:05.043Z,25.20
2018-04-13T09:45:03.980Z,24.00
2018-04-13T09:46:04.033Z,23.00
2018-04-13T09:47:03.937Z,24.20
2018-04-13T09:48:03.937Z,23.90
2018-04-13T09:49:03.858Z,24.30
2018-04-13T09:50:03.961Z,23.70
2018-04-13T09:51:03.812Z,22.10
2018-04-13T09:52:03.868Z,25.10
2018-04-13T09:53:03.758Z,22.80
2018-04-13T09:54:03.782Z,20.90
2018-04-13T09:55:03.694Z,23.30
2018-04-13T09:56:03.778Z,23.30
2018-04-13T09:57:03.652Z,20.10
2018-04-13T09:58:03.692Z,22.00
2018-04-13T09:59:03.590Z,21.80
2018-04-13T10:00:03.597Z,23.50
2018-04-13T10:01:03.571Z,17.80
2018-04-13T10:02:03.648Z,19.90
2018-04-13T10:03:03.504Z,19.90
2018-04-13T10:04:04.546Z,18.90
2018-04-13T10:05:03.473Z,20.80
2018-04-13T10:06:03.435Z,18.50
2018-04-13T10:07:03.424Z,18.60
2018-04-13T10:08:03.446Z,22.20
2018-04-13T10:09:03.360Z,20.70
2018-04-13T10:10:05.421Z,24.00
2018-04-13T10:11:03.288Z,27.90
2018-04-13T10:12:04.300Z,21.90
2018-04-13T10:13:03.293Z,25.40
2018-04-13T10:14:03.283Z,23.40
2018-04-13T10:15:03.197Z,25.30
2018-04-13T10:16:03.242Z,22.10
2018-04-13T10:17:03.146Z,23.20
2018-04-13T10:18:03.216Z,21.70
2018-04-13T10:19:03.104Z,23.00
2018-04-13T10:20:03.133Z,28.60
2018-04-13T10:21:03.042Z,25.00
2018-04-13T10:22:03.025Z,22.10
2018-04-13T10:23:03.054Z,20.70
2018-04-13T10:24:02.965Z,19.70
2018-04-13T10:25:03.980Z,24.20
2018-04-13T10:26:02.940Z,22.40
2018-04-13T10:27:02.975Z,21.70
2018-04-13T10:28:02.887Z,18.60
2018-04-13T10:29:03.908Z,21.60
2018-04-13T10:30:02.822Z,18.10
2018-04-13T10:31:03.812Z,22.00
2018-04-13T10:32:02.802Z,19.30
2018-04-13T10:33:07.819Z,28.30
2018-04-13T10:34:02.711Z,16.30
2018-04-13T10:35:04.761Z,18.10
2018-04-13T10:36:02.660Z,19.00
2018-04-13T10:37:02.637Z,19.00
2018-04-13T10:38:02.651Z,20.90
2018-04-13T10:39:02.626Z,19.10
2018-04-13T10:40:02.564Z,18.30
2018-04-13T10:41:02.557Z,20.90
2018-04-13T10:42:02.514Z,19.90
2018-04-13T10:43:02.507Z,21.60
2018-04-13T10:44:02.573Z,24.50
2018-04-13T10:45:02.466Z,20.40
2018-04-13T10:46:02.493Z,21.30
2018-04-13T10:47:02.388Z,18.30
2018-04-13T10:48:02.382Z,16.30
2018-04-13T10:49:02.346Z,17.50
2018-04-13T10:50:03.341Z,14.50
2018-04-13T10:51:02.288Z,19.50
2018-04-13T10:52:02.327Z,23.00
2018-04-13T10:53:02.235Z,16.20
2018-04-13T10:54:02.228Z,24.30
2018-04-13T10:55:02.202Z,20.60
2018-04-13T10:56:04.292Z,24.50
2018-04-13T10:57:02.162Z,17.30
2018-04-13T10:58:03.175Z,16.90
2018-04-13T10:59:02.093Z,16.60
2018-04-13T11:00:03.105Z,14.20
2018-04-13T11:01:02.034Z,22.60
2018-04-13T11:02:02.076Z,17.00
2018-04-13T11:03:01.986Z,16.40
2018-04-13T11:04:01.975Z,13.60
2018-04-13T11:05:01.961Z,13.70
2018-04-13T11:06:02.008Z,11.10
2018-04-13T11:07:01.896Z,10.30
2018-04-13T11:08:01.912Z,12.10
2018-04-13T11:09:01.858Z,11.20
2018-04-13T11:10:01.819Z,12.50
2018-04-13T11:11:03.886Z,12.10
2018-04-13T11:12:01.770Z,10.90
2018-04-13T11:13:01.851Z,12.50
2018-04-13T11:14:01.726Z,13.10
2018-04-13T11:15:01.759Z,11.40
2018-04-13T11:16:01.662Z,11.80
2018-04-13T11:17:01.700Z,14.10
2018-04-13T11:18:01.646Z,23.00
2018-04-13T11:19:01.758Z,19.30
2018-04-13T11:20:01.618Z,16.00
2018-04-13T11:21:01.602Z,16.10
2018-04-13T11:22:01.541Z,19.40
2018-04-13T11:23:01.567Z,15.10
2018-04-13T11:24:01.478Z,18.50
2018-04-13T11:25:02.594Z,15.00
2018-04-13T11:26:01.445Z,15.60
2018-04-13T11:27:01.440Z,15.30
2018-04-13T11:28:01.376Z,14.30
2018-04-13T11:29:01.331Z,16.30
2018-04-13T11:30:01.367Z,15.50
2018-04-13T11:31:01.287Z,14.20
2018-04-13T11:32:01.354Z,13.10
2018-04-13T11:33:01.250Z,14.60
2018-04-13T11:34:01.221Z,17.20
2018-04-13T11:35:01.183Z,15.40
2018-04-13T11:36:01.178Z,14.80
2018-04-13T11:37:01.195Z,17.10
2018-04-13T11:38:01.146Z,14.00
2018-04-13T11:39:02.167Z,12.70
2018-04-13T11:40:01.071Z,15.40
2018-04-13T11:41:01.051Z,15.00
2018-04-13T11:42:01.040Z,14.00
2018-04-13T11:43:00.996Z,14.20
2018-04-13T11:44:02.080Z,13.50
2018-04-13T11:45:00.940Z,13.20
2018-04-13T11:46:01.993Z,11.90
2018-04-13T11:47:00.887Z,13.30
2018-04-13T11:48:01.007Z,15.80
2018-04-13T11:49:00.887Z,16.70
2018-04-13T11:50:00.900Z,17.40
2018-04-13T11:51:00.793Z,17.10
2018-04-13T11:52:00.767Z,17.20
2018-04-13T11:53:00.749Z,16.20
2018-04-13T11:54:00.731Z,17.40
2018-04-13T11:55:00.700Z,18.40
2018-04-13T11:56:00.663Z,18.30
2018-04-13T11:57:00.656Z,18.10
2018-04-13T11:58:00.781Z,19.30
2018-04-13T11:59:00.580Z,20.40
2018-04-13T12:00:00.635Z,18.90
2018-04-13T12:01:00.571Z,17.20
2018-04-13T12:02:00.540Z,18.30
2018-04-13T12:03:00.494Z,18.00
2018-04-13T12:04:00.575Z,21.50
2018-04-13T12:05:00.462Z,15.20
2018-04-13T12:06:00.508Z,12.30
2018-04-13T12:07:00.380Z,10.50
2018-04-13T12:08:00.535Z,9.80
2018-04-13T12:09:00.335Z,9.30
2018-04-13T12:10:00.349Z,9.30
2018-04-13T12:11:00.399Z,10.40
2018-04-13T12:12:00.256Z,8.90
2018-04-13T12:13:00.333Z,8.90
2018-04-13T12:14:00.209Z,8.20
2018-04-13T12:15:00.224Z,8.80
2018-04-13T12:16:00.156Z,9.50
2018-04-13T12:17:00.138Z,9.60
2018-04-13T12:18:00.108Z,9.30
2018-04-13T12:19:00.146Z,10.20
2018-04-13T12:20:00.063Z,10.10
2018-04-13T12:21:00.100Z,11.10
2018-04-13T12:22:00.021Z,12.90
2018-04-13T12:23:00.073Z,11.30
2018-04-13T12:23:59.991Z,11.80
2018-04-13T12:24:59.938Z,10.40
2018-04-13T12:25:59.931Z,9.20
2018-04-13T12:26:59.886Z,8.40
2018-04-13T12:27:59.905Z,11.10
2018-04-13T12:28:59.844Z,12.40
2018-04-13T12:29:59.928Z,12.10
2018-04-13T12:30:59.790Z,12.20
2018-04-13T12:31:59.765Z,10.70
2018-04-13T12:32:59.894Z,9.90
2018-04-13T12:33:59.740Z,8.80
2018-04-13T12:35:00.788Z,7.70
2018-04-13T12:35:59.670Z,8.50
2018-04-13T12:36:59.691Z,10.20
2018-04-13T12:37:59.639Z,12.20
2018-04-13T12:38:59.609Z,13.00
2018-04-13T12:39:59.553Z,11.80
2018-04-13T12:40:59.654Z,10.40
2018-04-13T12:41:59.517Z,10.60
2018-04-13T12:42:59.499Z,9.60
2018-04-13T12:43:59.464Z,10.90
2018-04-13T12:44:59.474Z,12.50
2018-04-13T12:45:59.416Z,11.50